Aragon, NM

4:19 AM MDT on July 25, 2016 (GMT -0600)
April Fools Ranch (A-F) | | Change Station

Elev 7008 ft 33.82 °N, 108.33 °W | Updated 2 minutes ago

Clear
Clear
61.3 °F
Feels Like 61.3 °F
N
3.7
Wind Variable Wind from WNW

Today
High -- | Low -- °F
--% Chance of Precip.
Yesterday
High -- | Low -- °F
Precip. -- in
Pressure 29.90 in
Visibility 10.0 miles
Clouds Clear
Dew Point 47 °F
Humidity 60%
Rainfall 0.00 in
Snow Depth Not available.
6:21 AM 8:20 PM
Waning Gibbous, 67% visible
METAR KSJN 250954Z AUTO 00000KT 10SM CLR 21/12 A3024 RMK AO2 SLP125 T02110117 TSNO
Pressure 29.90 in
Visibility 10.0 miles
Clouds Clear
Dew Point 47 °F
Humidity 60%
Rainfall 0.00 in
Snow Depth Not available.
6:21 AM 8:20 PM
Waning Gibbous, 67% visible
METAR KSJN 250954Z AUTO 00000KT 10SM CLR 21/12 A3024 RMK AO2 SLP125 T02110117 TSNO

10-Day Weather Forecast

Almanac

Astronomy

Jul. 25, 2016 Rise Set
Actual Time
Civil Twilight
Nautical Twilight
Astronomical Twilight
Moon
Length of Visible Light
Length of Day
Tomorrow will be .
, % of the Moon is Illuminated

Today's Extremes

State Highs State Lows

Community

WunderPhotos

Upload Photos

1,927,291 photos uploaded!

WunderBlog® & News

Nearby

Air Quality

  Air Quality AQ Index Pollutant
Not available.

Snow Depth

Station Depth Elevation

Earthquake Activity

City Distance Mag. Time & Date
Minimum magnitude displayed is 2.5.

Coastal Water Temperatures

Place Temperature

Stations

Nearby Weather Stations

Station Location Temp. Windchill Dew Point Humidity Wind Precip. Elev Updated Type
                   

Watches & Warnings

There are currently no watches in effect.